sensor_id;sensor_type;location;lat;lon;timestamp;temperature;humidity
11569;DHT22;5840;46.894;15.542;2023-04-03T00:01:47;5.00;97.40
11569;DHT22;5840;46.894;15.542;2023-04-03T00:04:13;5.00;97.20
11569;DHT22;5840;46.894;15.542;2023-04-03T00:06:40;4.90;96.70
11569;DHT22;5840;46.894;15.542;2023-04-03T00:09:09;5.00;97.00
11569;DHT22;5840;46.894;15.542;2023-04-03T00:11:36;4.90;96.50
11569;DHT22;5840;46.894;15.542;2023-04-03T00:14:03;4.90;96.50
11569;DHT22;5840;46.894;15.542;2023-04-03T00:16:31;4.90;96.70
11569;DHT22;5840;46.894;15.542;2023-04-03T00:18:58;4.90;96.40
11569;DHT22;5840;46.894;15.542;2023-04-03T00:21:25;4.90;96.50
11569;DHT22;5840;46.894;15.542;2023-04-03T00:23:52;4.80;96.70
11569;DHT22;5840;46.894;15.542;2023-04-03T00:26:20;4.80;96.70
11569;DHT22;5840;46.894;15.542;2023-04-03T00:28:47;4.80;96.60
11569;DHT22;5840;46.894;15.542;2023-04-03T00:31:15;4.80;96.80
11569;DHT22;5840;46.894;15.542;2023-04-03T00:33:42;4.80;96.50
11569;DHT22;5840;46.894;15.542;2023-04-03T00:36:10;4.70;96.80
11569;DHT22;5840;46.894;15.542;2023-04-03T00:38:38;4.70;96.90
11569;DHT22;5840;46.894;15.542;2023-04-03T00:41:05;4.70;97.30
11569;DHT22;5840;46.894;15.542;2023-04-03T00:43:33;4.60;97.10
11569;DHT22;5840;46.894;15.542;2023-04-03T00:46:01;4.60;97.20
11569;DHT22;5840;46.894;15.542;2023-04-03T00:48:30;4.60;97.30
11569;DHT22;5840;46.894;15.542;2023-04-03T00:50:58;4.60;97.00
11569;DHT22;5840;46.894;15.542;2023-04-03T00:53:29;4.60;97.40
11569;DHT22;5840;46.894;15.542;2023-04-03T00:55:57;4.50;96.80
11569;DHT22;5840;46.894;15.542;2023-04-03T00:58:31;4.50;97.20
11569;DHT22;5840;46.894;15.542;2023-04-03T01:01:05;4.50;96.80
11569;DHT22;5840;46.894;15.542;2023-04-03T01:03:34;4.50;96.70
11569;DHT22;5840;46.894;15.542;2023-04-03T01:06:01;4.50;96.60
11569;DHT22;5840;46.894;15.542;2023-04-03T01:08:29;4.50;96.70
11569;DHT22;5840;46.894;15.542;2023-04-03T01:10:56;4.50;96.70
11569;DHT22;5840;46.894;15.542;2023-04-03T01:13:27;4.50;96.60
11569;DHT22;5840;46.894;15.542;2023-04-03T01:15:55;4.40;96.60
11569;DHT22;5840;46.894;15.542;2023-04-03T01:18:24;4.40;96.60
11569;DHT22;5840;46.894;15.542;2023-04-03T01:24:15;4.40;96.60
11569;DHT22;5840;46.894;15.542;2023-04-03T01:26:45;4.40;96.70
11569;DHT22;5840;46.894;15.542;2023-04-03T01:29:12;4.30;96.70
11569;DHT22;5840;46.894;15.542;2023-04-03T01:31:46;4.30;96.90
11569;DHT22;5840;46.894;15.542;2023-04-03T01:34:13;4.20;97.10
11569;DHT22;5840;46.894;15.542;2023-04-03T01:36:40;4.20;97.20
11569;DHT22;5840;46.894;15.542;2023-04-03T01:39:08;4.20;97.40
11569;DHT22;5840;46.894;15.542;2023-04-03T01:41:35;4.20;97.60
11569;DHT22;5840;46.894;15.542;2023-04-03T01:44:03;4.10;97.70
11569;DHT22;5840;46.894;15.542;2023-04-03T01:46:31;4.10;97.70
11569;DHT22;5840;46.894;15.542;2023-04-03T01:48:59;4.10;97.70
11569;DHT22;5840;46.894;15.542;2023-04-03T01:51:26;4.20;97.60
11569;DHT22;5840;46.894;15.542;2023-04-03T01:53:53;4.10;97.50
11569;DHT22;5840;46.894;15.542;2023-04-03T01:56:20;4.10;97.60
11569;DHT22;5840;46.894;15.542;2023-04-03T01:58:48;4.10;97.40
11569;DHT22;5840;46.894;15.542;2023-04-03T02:01:15;4.10;97.40
11569;DHT22;5840;46.894;15.542;2023-04-03T02:03:42;4.00;97.30
11569;DHT22;5840;46.894;15.542;2023-04-03T02:06:10;4.00;97.30
11569;DHT22;5840;46.894;15.542;2023-04-03T02:08:37;4.00;97.60
11569;DHT22;5840;46.894;15.542;2023-04-03T02:11:04;4.00;97.20
11569;DHT22;5840;46.894;15.542;2023-04-03T02:13:31;4.00;97.30
11569;DHT22;5840;46.894;15.542;2023-04-03T02:15:58;4.00;97.40
11569;DHT22;5840;46.894;15.542;2023-04-03T02:18:25;4.00;97.50
11569;DHT22;5840;46.894;15.542;2023-04-03T02:20:52;4.00;97.60
11569;DHT22;5840;46.894;15.542;2023-04-03T02:23:21;4.00;97.80
11569;DHT22;5840;46.894;15.542;2023-04-03T02:25:48;4.00;97.90
11569;DHT22;5840;46.894;15.542;2023-04-03T02:28:15;3.90;98.00
11569;DHT22;5840;46.894;15.542;2023-04-03T02:30:42;3.90;97.90
11569;DHT22;5840;46.894;15.542;2023-04-03T02:33:09;3.80;98.00
11569;DHT22;5840;46.894;15.542;2023-04-03T02:35:36;3.80;97.80
11569;DHT22;5840;46.894;15.542;2023-04-03T02:38:03;3.70;97.80
11569;DHT22;5840;46.894;15.542;2023-04-03T02:40:31;3.70;97.90
11569;DHT22;5840;46.894;15.542;2023-04-03T02:42:58;3.70;98.00
11569;DHT22;5840;46.894;15.542;2023-04-03T02:45:25;3.70;98.10
11569;DHT22;5840;46.894;15.542;2023-04-03T02:47:52;3.70;98.20
11569;DHT22;5840;46.894;15.542;2023-04-03T02:50:19;3.60;98.40
11569;DHT22;5840;46.894;15.542;2023-04-03T02:52:46;3.60;98.50
11569;DHT22;5840;46.894;15.542;2023-04-03T02:55:14;3.60;98.40
11569;DHT22;5840;46.894;15.542;2023-04-03T02:57:43;3.60;98.40
11569;DHT22;5840;46.894;15.542;2023-04-03T03:00:10;3.60;98.40
11569;DHT22;5840;46.894;15.542;2023-04-03T03:02:38;3.50;98.20
11569;DHT22;5840;46.894;15.542;2023-04-03T03:05:05;3.50;98.20
11569;DHT22;5840;46.894;15.542;2023-04-03T03:07:32;3.50;98.20
11569;DHT22;5840;46.894;15.542;2023-04-03T03:09:59;3.50;97.60
11569;DHT22;5840;46.894;15.542;2023-04-03T03:12:26;3.60;97.50
11569;DHT22;5840;46.894;15.542;2023-04-03T03:14:55;3.50;97.70
11569;DHT22;5840;46.894;15.542;2023-04-03T03:17:22;3.60;97.60
11569;DHT22;5840;46.894;15.542;2023-04-03T03:19:49;3.60;97.80
11569;DHT22;5840;46.894;15.542;2023-04-03T03:22:16;3.50;97.80
11569;DHT22;5840;46.894;15.542;2023-04-03T03:24:43;3.50;97.70
11569;DHT22;5840;46.894;15.542;2023-04-03T03:27:10;3.50;97.80
11569;DHT22;5840;46.894;15.542;2023-04-03T03:29:38;3.40;98.00
11569;DHT22;5840;46.894;15.542;2023-04-03T03:32:06;3.40;98.00
11569;DHT22;5840;46.894;15.542;2023-04-03T03:34:33;3.30;97.90
11569;DHT22;5840;46.894;15.542;2023-04-03T03:37:00;3.30;97.90
11569;DHT22;5840;46.894;15.542;2023-04-03T03:39:27;3.30;98.20
11569;DHT22;5840;46.894;15.542;2023-04-03T03:41:54;3.30;98.50
11569;DHT22;5840;46.894;15.542;2023-04-03T03:44:22;3.40;98.30
11569;DHT22;5840;46.894;15.542;2023-04-03T03:46:49;3.30;98.40
11569;DHT22;5840;46.894;15.542;2023-04-03T03:49:17;3.30;98.30
11569;DHT22;5840;46.894;15.542;2023-04-03T03:51:44;3.20;98.30
11569;DHT22;5840;46.894;15.542;2023-04-03T03:54:13;3.30;98.30
11569;DHT22;5840;46.894;15.542;2023-04-03T03:56:40;3.20;98.20
11569;DHT22;5840;46.894;15.542;2023-04-03T03:59:07;3.20;98.40
11569;DHT22;5840;46.894;15.542;2023-04-03T04:01:34;3.20;98.40
11569;DHT22;5840;46.894;15.542;2023-04-03T04:04:01;3.20;98.30
11569;DHT22;5840;46.894;15.542;2023-04-03T04:06:29;3.20;98.20
11569;DHT22;5840;46.894;15.542;2023-04-03T04:08:56;3.20;98.10
11569;DHT22;5840;46.894;15.542;2023-04-03T04:11:23;3.20;98.00
11569;DHT22;5840;46.894;15.542;2023-04-03T04:13:50;3.20;98.00
11569;DHT22;5840;46.894;15.542;2023-04-03T04:16:17;3.20;98.00
11569;DHT22;5840;46.894;15.542;2023-04-03T04:18:44;3.20;98.00
11569;DHT22;5840;46.894;15.542;2023-04-03T04:21:11;3.20;98.00
11569;DHT22;5840;46.894;15.542;2023-04-03T04:23:39;3.30;99.10
11569;DHT22;5840;46.894;15.542;2023-04-03T04:26:06;3.30;98.10
11569;DHT22;5840;46.894;15.542;2023-04-03T04:28:33;3.30;98.10
11569;DHT22;5840;46.894;15.542;2023-04-03T04:31:00;3.20;98.00
11569;DHT22;5840;46.894;15.542;2023-04-03T04:33:27;3.20;98.00
11569;DHT22;5840;46.894;15.542;2023-04-03T04:35:54;3.30;98.10
11569;DHT22;5840;46.894;15.542;2023-04-03T04:38:21;3.20;98.30
11569;DHT22;5840;46.894;15.542;2023-04-03T04:40:49;3.20;98.40
11569;DHT22;5840;46.894;15.542;2023-04-03T04:43:16;3.10;98.70
11569;DHT22;5840;46.894;15.542;2023-04-03T04:45:43;3.10;98.60
11569;DHT22;5840;46.894;15.542;2023-04-03T04:48:10;3.10;98.80
11569;DHT22;5840;46.894;15.542;2023-04-03T04:50:37;3.10;98.70
11569;DHT22;5840;46.894;15.542;2023-04-03T04:53:05;3.10;98.60
11569;DHT22;5840;46.894;15.542;2023-04-03T04:55:31;3.10;98.80
11569;DHT22;5840;46.894;15.542;2023-04-03T04:58:00;3.10;98.80
11569;DHT22;5840;46.894;15.542;2023-04-03T05:00:27;3.00;98.90
11569;DHT22;5840;46.894;15.542;2023-04-03T05:02:54;3.10;99.00
11569;DHT22;5840;46.894;15.542;2023-04-03T05:05:21;3.10;99.00
11569;DHT22;5840;46.894;15.542;2023-04-03T05:07:48;3.10;99.00
11569;DHT22;5840;46.894;15.542;2023-04-03T05:10:15;3.00;99.00
11569;DHT22;5840;46.894;15.542;2023-04-03T05:12:42;3.10;99.00
11569;DHT22;5840;46.894;15.542;2023-04-03T05:15:11;3.10;98.80
11569;DHT22;5840;46.894;15.542;2023-04-03T05:17:38;3.10;98.80
11569;DHT22;5840;46.894;15.542;2023-04-03T05:20:06;3.10;98.70
11569;DHT22;5840;46.894;15.542;2023-04-03T05:22:34;3.10;98.50
11569;DHT22;5840;46.894;15.542;2023-04-03T05:25:01;3.10;98.50
11569;DHT22;5840;46.894;15.542;2023-04-03T05:27:28;3.20;98.60
11569;DHT22;5840;46.894;15.542;2023-04-03T05:29:55;3.20;99.20
11569;DHT22;5840;46.894;15.542;2023-04-03T05:32:24;3.30;99.30
11569;DHT22;5840;46.894;15.542;2023-04-03T05:34:52;3.30;99.50
11569;DHT22;5840;46.894;15.542;2023-04-03T05:37:19;3.30;99.90
11569;DHT22;5840;46.894;15.542;2023-04-03T05:39:47;3.30;99.90
11569;DHT22;5840;46.894;15.542;2023-04-03T05:42:14;3.30;99.90
11569;DHT22;5840;46.894;15.542;2023-04-03T05:44:41;3.40;99.90
11569;DHT22;5840;46.894;15.542;2023-04-03T05:47:08;3.40;99.90
11569;DHT22;5840;46.894;15.542;2023-04-03T05:49:36;3.50;99.90
11569;DHT22;5840;46.894;15.542;2023-04-03T05:52:06;3.60;99.90
11569;DHT22;5840;46.894;15.542;2023-04-03T05:54:33;3.70;99.90
11569;DHT22;5840;46.894;15.542;2023-04-03T05:57:00;3.80;99.90
11569;DHT22;5840;46.894;15.542;2023-04-03T05:59:27;3.90;99.60
11569;DHT22;5840;46.894;15.542;2023-04-03T06:01:54;3.90;99.90
11569;DHT22;5840;46.894;15.542;2023-04-03T06:04:21;4.00;99.90
11569;DHT22;5840;46.894;15.542;2023-04-03T06:06:51;4.10;99.90
11569;DHT22;5840;46.894;15.542;2023-04-03T06:09:20;4.20;99.90
11569;DHT22;5840;46.894;15.542;2023-04-03T06:11:47;4.30;99.90
11569;DHT22;5840;46.894;15.542;2023-04-03T06:14:15;4.40;99.90
11569;DHT22;5840;46.894;15.542;2023-04-03T06:16:42;4.50;99.90
11569;DHT22;5840;46.894;15.542;2023-04-03T06:19:09;4.60;99.90
11569;DHT22;5840;46.894;15.542;2023-04-03T06:21:36;4.60;99.90
11569;DHT22;5840;46.894;15.542;2023-04-03T06:24:05;4.70;99.90
11569;DHT22;5840;46.894;15.542;2023-04-03T06:26:33;4.80;99.90
11569;DHT22;5840;46.894;15.542;2023-04-03T06:29:00;4.80;99.90
11569;DHT22;5840;46.894;15.542;2023-04-03T06:31:27;4.90;99.90
11569;DHT22;5840;46.894;15.542;2023-04-03T06:33:55;4.90;99.90
11569;DHT22;5840;46.894;15.542;2023-04-03T06:36:22;5.00;99.90
11569;DHT22;5840;46.894;15.542;2023-04-03T06:38:49;5.10;99.30
11569;DHT22;5840;46.894;15.542;2023-04-03T06:41:17;5.20;99.50
11569;DHT22;5840;46.894;15.542;2023-04-03T06:43:45;5.20;99.90
11569;DHT22;5840;46.894;15.542;2023-04-03T06:46:15;5.30;99.40
11569;DHT22;5840;46.894;15.542;2023-04-03T06:48:43;5.40;98.40
11569;DHT22;5840;46.894;15.542;2023-04-03T06:51:17;5.50;98.30
11569;DHT22;5840;46.894;15.542;2023-04-03T06:53:46;5.60;98.00
11569;DHT22;5840;46.894;15.542;2023-04-03T06:56:13;5.70;98.70
11569;DHT22;5840;46.894;15.542;2023-04-03T06:58:42;5.80;97.70
11569;DHT22;5840;46.894;15.542;2023-04-03T07:01:10;5.80;96.40
11569;DHT22;5840;46.894;15.542;2023-04-03T07:03:37;5.90;97.80
11569;DHT22;5840;46.894;15.542;2023-04-03T07:06:05;6.00;97.10
11569;DHT22;5840;46.894;15.542;2023-04-03T07:08:32;6.10;96.30
11569;DHT22;5840;46.894;15.542;2023-04-03T07:11:00;6.20;97.00
11569;DHT22;5840;46.894;15.542;2023-04-03T07:13:27;6.30;95.80
11569;DHT22;5840;46.894;15.542;2023-04-03T07:15:56;6.30;96.50
11569;DHT22;5840;46.894;15.542;2023-04-03T07:18:23;6.40;95.30
11569;DHT22;5840;46.894;15.542;2023-04-03T07:20:50;6.40;95.60
11569;DHT22;5840;46.894;15.542;2023-04-03T07:23:17;6.50;95.40
11569;DHT22;5840;46.894;15.542;2023-04-03T07:25:44;6.50;94.80
11569;DHT22;5840;46.894;15.542;2023-04-03T07:28:12;6.50;94.70
11569;DHT22;5840;46.894;15.542;2023-04-03T07:30:43;6.50;94.10
11569;DHT22;5840;46.894;15.542;2023-04-03T07:33:13;6.60;94.30
11569;DHT22;5840;46.894;15.542;2023-04-03T07:35:41;6.60;94.20
11569;DHT22;5840;46.894;15.542;2023-04-03T07:38:08;6.70;94.40
11569;DHT22;5840;46.894;15.542;2023-04-03T07:40:36;6.70;94.40
11569;DHT22;5840;46.894;15.542;2023-04-03T07:43:03;6.80;95.20
11569;DHT22;5840;46.894;15.542;2023-04-03T07:45:31;6.90;94.70
11569;DHT22;5840;46.894;15.542;2023-04-03T07:47:58;7.00;94.50
11569;DHT22;5840;46.894;15.542;2023-04-03T07:50:27;7.00;93.60
11569;DHT22;5840;46.894;15.542;2023-04-03T07:52:55;7.00;93.30
11569;DHT22;5840;46.894;15.542;2023-04-03T07:55:23;7.00;93.50
11569;DHT22;5840;46.894;15.542;2023-04-03T07:57:50;7.10;94.20
11569;DHT22;5840;46.894;15.542;2023-04-03T08:00:18;7.10;93.40
11569;DHT22;5840;46.894;15.542;2023-04-03T08:02:45;7.20;95.10
11569;DHT22;5840;46.894;15.542;2023-04-03T08:05:16;7.30;93.90
11569;DHT22;5840;46.894;15.542;2023-04-03T08:07:44;7.40;94.60
11569;DHT22;5840;46.894;15.542;2023-04-03T08:10:12;7.40;95.00
11569;DHT22;5840;46.894;15.542;2023-04-03T08:12:39;7.50;95.00
11569;DHT22;5840;46.894;15.542;2023-04-03T08:15:08;7.50;93.60
11569;DHT22;5840;46.894;15.542;2023-04-03T08:17:35;7.60;94.50
11569;DHT22;5840;46.894;15.542;2023-04-03T08:20:03;7.70;94.80
11569;DHT22;5840;46.894;15.542;2023-04-03T08:22:32;7.60;93.20
11569;DHT22;5840;46.894;15.542;2023-04-03T08:25:00;7.50;92.30
11569;DHT22;5840;46.894;15.542;2023-04-03T08:27:28;7.50;93.60
11569;DHT22;5840;46.894;15.542;2023-04-03T08:29:55;7.50;93.70
11569;DHT22;5840;46.894;15.542;2023-04-03T08:32:22;7.60;93.50
11569;DHT22;5840;46.894;15.542;2023-04-03T08:34:49;7.70;93.50
11569;DHT22;5840;46.894;15.542;2023-04-03T08:37:16;7.70;94.10
11569;DHT22;5840;46.894;15.542;2023-04-03T08:39:44;7.80;93.60
11569;DHT22;5840;46.894;15.542;2023-04-03T08:42:22;7.80;93.20
11569;DHT22;5840;46.894;15.542;2023-04-03T08:44:58;7.90;93.60
11569;DHT22;5840;46.894;15.542;2023-04-03T08:47:30;7.90;92.70
11569;DHT22;5840;46.894;15.542;2023-04-03T08:50:05;7.80;93.00
11569;DHT22;5840;46.894;15.542;2023-04-03T08:52:37;7.80;92.80
11569;DHT22;5840;46.894;15.542;2023-04-03T08:55:13;7.80;93.10
11569;DHT22;5840;46.894;15.542;2023-04-03T08:57:44;7.80;94.10
11569;DHT22;5840;46.894;15.542;2023-04-03T09:00:17;7.90;92.00
11569;DHT22;5840;46.894;15.542;2023-04-03T09:02:46;7.90;92.60
11569;DHT22;5840;46.894;15.542;2023-04-03T09:05:16;8.00;93.80
11569;DHT22;5840;46.894;15.542;2023-04-03T09:07:45;8.00;93.20
11569;DHT22;5840;46.894;15.542;2023-04-03T09:10:15;8.10;93.40
11569;DHT22;5840;46.894;15.542;2023-04-03T09:12:46;8.00;93.40
11569;DHT22;5840;46.894;15.542;2023-04-03T09:15:18;8.10;91.90
11569;DHT22;5840;46.894;15.542;2023-04-03T09:17:58;8.20;92.50
11569;DHT22;5840;46.894;15.542;2023-04-03T09:20:36;8.40;90.30
11569;DHT22;5840;46.894;15.542;2023-04-03T09:23:14;8.70;90.20
11569;DHT22;5840;46.894;15.542;2023-04-03T09:25:43;8.90;90.30
11569;DHT22;5840;46.894;15.542;2023-04-03T09:28:13;9.10;89.40
11569;DHT22;5840;46.894;15.542;2023-04-03T09:30:40;9.30;90.90
11569;DHT22;5840;46.894;15.542;2023-04-03T09:33:08;9.50;88.00
11569;DHT22;5840;46.894;15.542;2023-04-03T09:35:36;9.50;86.70
11569;DHT22;5840;46.894;15.542;2023-04-03T09:38:16;9.30;87.10
11569;DHT22;5840;46.894;15.542;2023-04-03T09:40:44;9.30;90.60
11569;DHT22;5840;46.894;15.542;2023-04-03T09:43:25;9.60;90.00
11569;DHT22;5840;46.894;15.542;2023-04-03T09:45:53;9.70;88.80
11569;DHT22;5840;46.894;15.542;2023-04-03T09:48:23;9.60;87.10
11569;DHT22;5840;46.894;15.542;2023-04-03T09:50:57;9.60;88.00
11569;DHT22;5840;46.894;15.542;2023-04-03T09:53:36;9.60;88.60
11569;DHT22;5840;46.894;15.542;2023-04-03T09:56:18;9.80;87.20
11569;DHT22;5840;46.894;15.542;2023-04-03T09:58:48;9.80;85.30
11569;DHT22;5840;46.894;15.542;2023-04-03T10:01:26;9.60;85.80
11569;DHT22;5840;46.894;15.542;2023-04-03T10:04:08;9.40;83.60
11569;DHT22;5840;46.894;15.542;2023-04-03T10:06:38;9.90;88.90
11569;DHT22;5840;46.894;15.542;2023-04-03T10:09:16;10.50;90.10
11569;DHT22;5840;46.894;15.542;2023-04-03T10:11:58;11.30;90.00
11569;DHT22;5840;46.894;15.542;2023-04-03T10:14:28;12.10;84.40
11569;DHT22;5840;46.894;15.542;2023-04-03T10:17:02;12.70;83.30
11569;DHT22;5840;46.894;15.542;2023-04-03T10:19:39;12.90;83.10
11569;DHT22;5840;46.894;15.542;2023-04-03T10:22:16;13.10;80.60
11569;DHT22;5840;46.894;15.542;2023-04-03T10:24:57;13.10;78.20
11569;DHT22;5840;46.894;15.542;2023-04-03T10:27:35;12.80;73.40
11569;DHT22;5840;46.894;15.542;2023-04-03T10:30:19;12.30;76.30
11569;DHT22;5840;46.894;15.542;2023-04-03T10:32:58;12.00;76.50
11569;DHT22;5840;46.894;15.542;2023-04-03T10:35:37;11.10;76.00
11569;DHT22;5840;46.894;15.542;2023-04-03T10:38:11;10.80;77.60
11569;DHT22;5840;46.894;15.542;2023-04-03T10:40:47;10.50;75.50
11569;DHT22;5840;46.894;15.542;2023-04-03T10:43:19;10.20;79.60
11569;DHT22;5840;46.894;15.542;2023-04-03T10:45:59;10.10;79.10
11569;DHT22;5840;46.894;15.542;2023-04-03T10:48:40;10.00;76.90
11569;DHT22;5840;46.894;15.542;2023-04-03T10:51:18;10.00;80.30
11569;DHT22;5840;46.894;15.542;2023-04-03T10:53:54;10.50;79.30
11569;DHT22;5840;46.894;15.542;2023-04-03T10:56:30;10.80;79.10
11569;DHT22;5840;46.894;15.542;2023-04-03T10:59:05;10.90;79.80
11569;DHT22;5840;46.894;15.542;2023-04-03T11:01:38;10.80;78.00
11569;DHT22;5840;46.894;15.542;2023-04-03T11:04:09;10.50;77.60
11569;DHT22;5840;46.894;15.542;2023-04-03T11:06:39;10.30;77.00
11569;DHT22;5840;46.894;15.542;2023-04-03T11:09:15;9.90;75.50
11569;DHT22;5840;46.894;15.542;2023-04-03T11:11:45;9.70;77.20
11569;DHT22;5840;46.894;15.542;2023-04-03T11:14:17;9.30;76.70
11569;DHT22;5840;46.894;15.542;2023-04-03T11:16:53;9.20;78.40
11569;DHT22;5840;46.894;15.542;2023-04-03T11:19:34;9.40;78.60
11569;DHT22;5840;46.894;15.542;2023-04-03T11:22:04;9.50;81.10
11569;DHT22;5840;46.894;15.542;2023-04-03T11:24:37;9.90;80.50
11569;DHT22;5840;46.894;15.542;2023-04-03T11:27:05;10.10;81.70
11569;DHT22;5840;46.894;15.542;2023-04-03T11:29:38;10.10;80.10
11569;DHT22;5840;46.894;15.542;2023-04-03T11:32:27;10.10;79.00
11569;DHT22;5840;46.894;15.542;2023-04-03T11:34:59;9.90;76.00
11569;DHT22;5840;46.894;15.542;2023-04-03T11:37:33;9.70;80.50
11569;DHT22;5840;46.894;15.542;2023-04-03T11:40:05;10.10;82.20
11569;DHT22;5840;46.894;15.542;2023-04-03T11:42:37;10.70;85.30
11569;DHT22;5840;46.894;15.542;2023-04-03T11:45:27;10.80;76.20
11569;DHT22;5840;46.894;15.542;2023-04-03T11:47:59;10.60;77.60
11569;DHT22;5840;46.894;15.542;2023-04-03T11:50:41;10.40;78.70
11569;DHT22;5840;46.894;15.542;2023-04-03T11:53:29;10.40;78.70
11569;DHT22;5840;46.894;15.542;2023-04-03T11:56:02;10.10;75.10
11569;DHT22;5840;46.894;15.542;2023-04-03T11:58:32;10.10;77.00
11569;DHT22;5840;46.894;15.542;2023-04-03T12:01:09;10.10;74.70
11569;DHT22;5840;46.894;15.542;2023-04-03T12:10:18;10.80;73.10
11569;DHT22;5840;46.894;15.542;2023-04-03T12:12:59;11.50;76.30
11569;DHT22;5840;46.894;15.542;2023-04-03T12:15:49;11.60;70.90
11569;DHT22;5840;46.894;15.542;2023-04-03T12:18:57;11.40;74.40
11569;DHT22;5840;46.894;15.542;2023-04-03T12:24:26;10.50;75.10
11569;DHT22;5840;46.894;15.542;2023-04-03T12:29:52;11.90;77.60
11569;DHT22;5840;46.894;15.542;2023-04-03T12:32:34;12.00;74.90
11569;DHT22;5840;46.894;15.542;2023-04-03T12:35:21;11.60;72.50
11569;DHT22;5840;46.894;15.542;2023-04-03T12:38:17;11.80;74.20
11569;DHT22;5840;46.894;15.542;2023-04-03T12:40:55;12.30;73.90
11569;DHT22;5840;46.894;15.542;2023-04-03T12:43:41;12.70;70.10
11569;DHT22;5840;46.894;15.542;2023-04-03T12:46:14;12.70;66.00
11569;DHT22;5840;46.894;15.542;2023-04-03T12:48:48;12.50;69.10
11569;DHT22;5840;46.894;15.542;2023-04-03T12:51:19;12.90;75.10
11569;DHT22;5840;46.894;15.542;2023-04-03T12:53:48;13.30;69.30
11569;DHT22;5840;46.894;15.542;2023-04-03T12:56:22;13.10;66.20
11569;DHT22;5840;46.894;15.542;2023-04-03T12:58:52;12.60;66.10
11569;DHT22;5840;46.894;15.542;2023-04-03T13:01:21;11.90;68.40
11569;DHT22;5840;46.894;15.542;2023-04-03T13:03:52;11.50;70.50
11569;DHT22;5840;46.894;15.542;2023-04-03T13:06:21;11.20;70.40
11569;DHT22;5840;46.894;15.542;2023-04-03T13:08:50;10.90;71.50
11569;DHT22;5840;46.894;15.542;2023-04-03T13:11:19;10.80;72.40
11569;DHT22;5840;46.894;15.542;2023-04-03T13:13:59;10.80;71.60
11569;DHT22;5840;46.894;15.542;2023-04-03T13:16:27;11.00;72.50
11569;DHT22;5840;46.894;15.542;2023-04-03T13:18:55;10.90;72.90
11569;DHT22;5840;46.894;15.542;2023-04-03T13:21:25;10.90;71.20
11569;DHT22;5840;46.894;15.542;2023-04-03T13:23:55;10.80;69.80
11569;DHT22;5840;46.894;15.542;2023-04-03T13:26:25;10.80;70.80
11569;DHT22;5840;46.894;15.542;2023-04-03T13:28:53;11.20;72.30
11569;DHT22;5840;46.894;15.542;2023-04-03T13:31:26;11.70;76.90
11569;DHT22;5840;46.894;15.542;2023-04-03T13:33:57;12.00;73.50
11569;DHT22;5840;46.894;15.542;2023-04-03T13:36:28;12.00;71.20
11569;DHT22;5840;46.894;15.542;2023-04-03T13:39:02;11.90;68.10
11569;DHT22;5840;46.894;15.542;2023-04-03T13:41:31;12.10;71.30
11569;DHT22;5840;46.894;15.542;2023-04-03T13:44:17;12.30;72.20
11569;DHT22;5840;46.894;15.542;2023-04-03T13:46:46;12.50;71.70
11569;DHT22;5840;46.894;15.542;2023-04-03T13:49:19;12.50;70.20
11569;DHT22;5840;46.894;15.542;2023-04-03T13:51:46;11.90;68.40
11569;DHT22;5840;46.894;15.542;2023-04-03T13:54:20;11.40;69.60
11569;DHT22;5840;46.894;15.542;2023-04-03T13:56:53;11.00;70.20
11569;DHT22;5840;46.894;15.542;2023-04-03T13:59:24;11.00;74.80
11569;DHT22;5840;46.894;15.542;2023-04-03T14:01:54;10.90;71.30
11569;DHT22;5840;46.894;15.542;2023-04-03T14:04:23;11.10;74.20
11569;DHT22;5840;46.894;15.542;2023-04-03T14:06:51;11.10;72.00
11569;DHT22;5840;46.894;15.542;2023-04-03T14:09:20;11.20;71.70
11569;DHT22;5840;46.894;15.542;2023-04-03T14:11:48;11.20;72.60
11569;DHT22;5840;46.894;15.542;2023-04-03T14:14:18;11.20;73.60
11569;DHT22;5840;46.894;15.542;2023-04-03T14:16:48;10.90;71.80
11569;DHT22;5840;46.894;15.542;2023-04-03T14:19:21;10.70;73.40
11569;DHT22;5840;46.894;15.542;2023-04-03T14:21:49;10.80;72.30
11569;DHT22;5840;46.894;15.542;2023-04-03T14:24:18;10.70;71.50
11569;DHT22;5840;46.894;15.542;2023-04-03T14:26:48;10.60;69.10
11569;DHT22;5840;46.894;15.542;2023-04-03T14:29:15;10.50;72.50
11569;DHT22;5840;46.894;15.542;2023-04-03T14:31:43;10.20;71.60
11569;DHT22;5840;46.894;15.542;2023-04-03T14:34:12;10.10;74.20
11569;DHT22;5840;46.894;15.542;2023-04-03T14:36:42;10.00;74.70
11569;DHT22;5840;46.894;15.542;2023-04-03T14:39:16;9.70;72.80
11569;DHT22;5840;46.894;15.542;2023-04-03T14:41:43;9.60;75.10
11569;DHT22;5840;46.894;15.542;2023-04-03T14:44:10;9.50;73.70
11569;DHT22;5840;46.894;15.542;2023-04-03T14:46:40;9.30;72.70
11569;DHT22;5840;46.894;15.542;2023-04-03T14:49:13;9.30;75.50
11569;DHT22;5840;46.894;15.542;2023-04-03T14:51:43;9.40;75.20
11569;DHT22;5840;46.894;15.542;2023-04-03T14:54:13;9.50;76.70
11569;DHT22;5840;46.894;15.542;2023-04-03T14:56:41;9.40;75.00
11569;DHT22;5840;46.894;15.542;2023-04-03T14:59:11;9.30;75.20
11569;DHT22;5840;46.894;15.542;2023-04-03T15:01:39;9.30;76.70
11569;DHT22;5840;46.894;15.542;2023-04-03T15:04:10;9.20;73.00
11569;DHT22;5840;46.894;15.542;2023-04-03T15:06:38;9.10;75.70
11569;DHT22;5840;46.894;15.542;2023-04-03T15:09:14;9.00;77.20
11569;DHT22;5840;46.894;15.542;2023-04-03T15:11:45;8.90;76.70
11569;DHT22;5840;46.894;15.542;2023-04-03T15:14:12;8.80;75.20
11569;DHT22;5840;46.894;15.542;2023-04-03T15:16:39;8.70;73.70
11569;DHT22;5840;46.894;15.542;2023-04-03T15:19:06;8.60;75.30
11569;DHT22;5840;46.894;15.542;2023-04-03T15:21:33;8.50;76.10
11569;DHT22;5840;46.894;15.542;2023-04-03T15:24:00;8.40;78.20
11569;DHT22;5840;46.894;15.542;2023-04-03T15:26:29;8.40;77.00
11569;DHT22;5840;46.894;15.542;2023-04-03T15:28:56;8.40;79.00
11569;DHT22;5840;46.894;15.542;2023-04-03T15:31:23;8.40;76.40
11569;DHT22;5840;46.894;15.542;2023-04-03T15:33:50;8.20;75.00
11569;DHT22;5840;46.894;15.542;2023-04-03T15:36:17;8.00;75.60
11569;DHT22;5840;46.894;15.542;2023-04-03T15:38:44;8.00;76.50
11569;DHT22;5840;46.894;15.542;2023-04-03T15:41:11;7.90;77.70
11569;DHT22;5840;46.894;15.542;2023-04-03T15:43:40;7.90;77.00
11569;DHT22;5840;46.894;15.542;2023-04-03T15:46:07;8.00;76.10
11569;DHT22;5840;46.894;15.542;2023-04-03T15:48:36;7.90;74.50
11569;DHT22;5840;46.894;15.542;2023-04-03T15:51:03;7.80;73.80
11569;DHT22;5840;46.894;15.542;2023-04-03T15:53:31;7.60;73.40
11569;DHT22;5840;46.894;15.542;2023-04-03T15:55:58;7.50;74.70
11569;DHT22;5840;46.894;15.542;2023-04-03T15:58:25;7.40;76.70
11569;DHT22;5840;46.894;15.542;2023-04-03T16:00:53;7.30;74.60
11569;DHT22;5840;46.894;15.542;2023-04-03T16:03:21;7.40;77.80
11569;DHT22;5840;46.894;15.542;2023-04-03T16:05:50;7.50;78.60
11569;DHT22;5840;46.894;15.542;2023-04-03T16:08:18;7.60;78.40
11569;DHT22;5840;46.894;15.542;2023-04-03T16:10:46;7.80;76.60
11569;DHT22;5840;46.894;15.542;2023-04-03T16:13:14;7.80;73.80
11569;DHT22;5840;46.894;15.542;2023-04-03T16:15:41;7.80;72.40